createdAt,value
2022-09-28T00:02:21.885Z,9.20
2022-09-28T00:04:48.963Z,9.10
2022-09-28T00:07:15.762Z,9.10
2022-09-28T00:09:43.187Z,9.10
2022-09-28T00:12:10.341Z,9.10
2022-09-28T00:14:37.145Z,9.10
2022-09-28T00:17:04.037Z,9.10
2022-09-28T00:19:30.895Z,9.00
2022-09-28T00:21:57.684Z,9.00
2022-09-28T00:24:27.705Z,9.00
2022-09-28T00:26:56.690Z,9.00
2022-09-28T00:29:26.520Z,9.00
2022-09-28T00:32:00.540Z,9.00
2022-09-28T00:34:28.299Z,9.00
2022-09-28T00:36:55.144Z,9.10
2022-09-28T00:39:22.013Z,9.10
2022-09-28T00:41:49.702Z,9.10
2022-09-28T00:44:41.799Z,9.10
2022-09-28T00:47:32.190Z,9.10
2022-09-28T00:50:22.730Z,9.10
2022-09-28T00:52:55.188Z,9.10
2022-09-28T00:55:50.196Z,9.00
2022-09-28T00:58:26.907Z,9.00
2022-09-28T01:00:56.347Z,9.00
2022-09-28T01:03:23.656Z,9.00
2022-09-28T01:05:53.476Z,9.00
2022-09-28T01:08:23.842Z,9.00
2022-09-28T01:10:51.534Z,9.00
2022-09-28T01:13:21.536Z,9.10
2022-09-28T01:16:20.476Z,9.10
2022-09-28T01:19:14.373Z,9.10
2022-09-28T01:21:56.129Z,9.10
2022-09-28T01:24:25.704Z,9.10
2022-09-28T01:27:00.521Z,9.10
2022-09-28T01:29:39.009Z,9.10
2022-09-28T01:32:27.395Z,9.10
2022-09-28T01:35:20.605Z,9.10
2022-09-28T01:37:52.131Z,9.20
2022-09-28T01:40:22.562Z,9.20
2022-09-28T01:42:54.912Z,9.20
2022-09-28T01:45:31.246Z,9.10
2022-09-28T01:48:02.896Z,9.10
2022-09-28T01:50:34.723Z,9.10
2022-09-28T01:53:12.331Z,9.10
2022-09-28T01:55:43.378Z,9.10
2022-09-28T01:58:16.016Z,9.10
2022-09-28T02:00:48.198Z,9.10
2022-09-28T02:03:21.595Z,9.10
2022-09-28T02:06:09.390Z,9.10
2022-09-28T02:09:05.423Z,9.10
2022-09-28T02:11:45.021Z,9.10
2022-09-28T02:14:15.550Z,9.10
2022-09-28T02:16:47.172Z,9.10
2022-09-28T02:19:17.770Z,9.10
2022-09-28T02:22:00.275Z,9.00
2022-09-28T02:24:53.947Z,9.10
2022-09-28T02:27:53.482Z,9.10
2022-09-28T02:30:20.318Z,9.00
2022-09-28T02:32:50.527Z,9.00
2022-09-28T02:35:19.373Z,9.00
2022-09-28T02:37:46.899Z,9.00
2022-09-28T02:40:20.406Z,9.00
2022-09-28T02:42:56.637Z,9.00
2022-09-28T02:45:37.937Z,9.10
2022-09-28T02:48:43.499Z,9.00
2022-09-28T02:51:33.409Z,9.10
2022-09-28T02:54:21.473Z,9.00
2022-09-28T02:57:00.762Z,9.10
2022-09-28T02:59:48.857Z,9.10
2022-09-28T03:02:30.676Z,9.10
2022-09-28T03:05:07.124Z,9.10
2022-09-28T03:07:38.589Z,9.10
2022-09-28T03:10:36.589Z,9.10
2022-09-28T03:13:04.595Z,9.10
2022-09-28T03:15:35.075Z,9.10
2022-09-28T03:18:02.603Z,9.10
2022-09-28T03:20:31.967Z,9.10
2022-09-28T03:25:45.580Z,9.10
2022-09-28T03:28:12.382Z,9.10
2022-09-28T03:30:42.907Z,9.10
2022-09-28T03:33:09.889Z,9.10
2022-09-28T03:35:36.681Z,9.00
2022-09-28T03:38:03.459Z,9.00
2022-09-28T03:40:32.577Z,9.00
2022-09-28T03:43:00.847Z,9.10
2022-09-28T03:45:27.709Z,9.10
2022-09-28T03:47:54.659Z,9.10
2022-09-28T03:50:21.440Z,9.10
2022-09-28T03:52:48.649Z,9.10
2022-09-28T03:55:15.735Z,9.10
2022-09-28T03:57:42.870Z,9.00
2022-09-28T04:00:10.493Z,9.00
2022-09-28T04:02:43.485Z,9.00
2022-09-28T04:05:10.818Z,9.00
2022-09-28T04:07:37.925Z,9.00
2022-09-28T04:10:05.053Z,9.00
2022-09-28T04:12:32.307Z,9.00
2022-09-28T04:14:59.044Z,9.00
2022-09-28T04:17:25.896Z,9.00
2022-09-28T04:19:52.947Z,9.00
2022-09-28T04:22:38.390Z,9.00
2022-09-28T04:25:05.513Z,8.90
2022-09-28T04:27:50.935Z,8.90
2022-09-28T04:30:18.055Z,8.90
2022-09-28T04:32:48.715Z,8.90
2022-09-28T04:35:16.514Z,8.90
2022-09-28T04:37:43.312Z,8.90
2022-09-28T04:40:10.543Z,8.80
2022-09-28T04:42:38.031Z,8.80
2022-09-28T04:45:05.477Z,8.80
2022-09-28T04:47:35.515Z,8.80
2022-09-28T04:50:27.319Z,8.90
2022-09-28T04:53:11.602Z,8.90
2022-09-28T04:55:39.626Z,8.90
2022-09-28T04:58:06.444Z,9.00
2022-09-28T05:00:35.288Z,9.00
2022-09-28T05:03:11.635Z,9.00
2022-09-28T05:05:59.143Z,9.00
2022-09-28T05:08:42.294Z,9.00
2022-09-28T05:11:12.373Z,9.00
2022-09-28T05:13:45.273Z,9.00
2022-09-28T05:16:16.172Z,9.00
2022-09-28T05:19:01.726Z,8.90
2022-09-28T05:21:29.956Z,8.90
2022-09-28T05:23:58.266Z,8.90
2022-09-28T05:26:25.549Z,8.90
2022-09-28T05:28:52.968Z,8.90
2022-09-28T05:31:42.476Z,8.90
2022-09-28T05:34:17.574Z,8.90
2022-09-28T05:36:45.967Z,8.90
2022-09-28T05:39:12.778Z,8.90
2022-09-28T05:41:39.543Z,8.90
2022-09-28T05:44:06.485Z,8.90
2022-09-28T05:46:34.669Z,8.90
2022-09-28T05:49:01.945Z,8.90
2022-09-28T05:51:28.864Z,8.90
2022-09-28T05:53:58.811Z,8.90
2022-09-28T05:56:30.489Z,8.90
2022-09-28T05:58:58.631Z,8.90
2022-09-28T06:01:28.383Z,8.80
2022-09-28T06:03:57.463Z,8.80
2022-09-28T06:06:24.275Z,8.80
2022-09-28T06:08:51.541Z,8.80
2022-09-28T06:11:32.083Z,8.80
2022-09-28T06:14:03.024Z,8.80
2022-09-28T06:16:31.451Z,8.80
2022-09-28T06:18:58.277Z,8.90
2022-09-28T06:21:36.294Z,8.90
2022-09-28T06:24:04.748Z,9.00
2022-09-28T06:26:31.800Z,9.00
2022-09-28T06:29:00.444Z,9.10
2022-09-28T06:31:30.066Z,9.10
2022-09-28T06:33:57.784Z,9.20
2022-09-28T06:36:24.694Z,9.30
2022-09-28T06:38:51.459Z,9.40
2022-09-28T06:41:18.378Z,9.40
2022-09-28T06:43:47.412Z,9.50
2022-09-28T06:46:52.630Z,9.50
2022-09-28T06:49:22.410Z,9.60
2022-09-28T06:52:07.773Z,9.60
2022-09-28T06:54:53.477Z,9.70
2022-09-28T06:57:29.330Z,9.70
2022-09-28T06:59:56.167Z,9.80
2022-09-28T07:02:23.283Z,9.80
2022-09-28T07:05:29.821Z,9.90
2022-09-28T07:08:15.962Z,10.00
2022-09-28T07:11:07.148Z,10.20
2022-09-28T07:14:00.604Z,10.40
2022-09-28T07:16:53.278Z,10.80
2022-09-28T07:19:16.927Z,11.30
2022-09-28T07:21:46.258Z,11.60
2022-09-28T07:24:14.554Z,11.90
2022-09-28T07:26:59.875Z,12.30
2022-09-28T07:29:34.732Z,12.70
2022-09-28T07:32:22.489Z,13.10
2022-09-28T07:35:09.580Z,13.60
2022-09-28T07:37:43.643Z,14.10
2022-09-28T07:40:29.509Z,14.60
2022-09-28T07:42:56.936Z,15.10
2022-09-28T07:45:24.593Z,15.60
2022-09-28T07:48:00.835Z,16.00
2022-09-28T07:50:51.701Z,16.40
2022-09-28T07:53:33.359Z,16.80
2022-09-28T07:56:18.251Z,17.30
2022-09-28T07:58:53.932Z,17.70
2022-09-28T08:01:23.730Z,18.00
2022-09-28T08:03:51.571Z,18.10
2022-09-28T08:06:18.848Z,18.20
2022-09-28T08:08:45.823Z,18.30
2022-09-28T08:11:18.841Z,18.40
2022-09-28T08:14:11.101Z,18.50
2022-09-28T08:16:53.421Z,19.00
2022-09-28T08:20:01.802Z,19.40
2022-09-28T08:22:32.194Z,19.60
2022-09-28T08:24:59.985Z,19.50
2022-09-28T08:27:26.841Z,19.40
2022-09-28T08:29:54.007Z,19.40
2022-09-28T08:32:39.560Z,19.70
2022-09-28T08:35:29.222Z,20.00
2022-09-28T08:38:19.252Z,20.00
2022-09-28T08:41:37.077Z,19.90
2022-09-28T08:44:26.119Z,19.90
2022-09-28T08:47:37.030Z,20.10
2022-09-28T08:50:31.759Z,20.50
2022-09-28T08:53:38.935Z,21.20
2022-09-28T08:56:42.272Z,21.40
2022-09-28T08:59:19.041Z,22.00
2022-09-28T09:01:58.169Z,22.40
2022-09-28T09:04:26.387Z,22.30
2022-09-28T09:07:14.075Z,21.90
2022-09-28T09:10:15.848Z,21.70
2022-09-28T09:13:11.333Z,22.10
2022-09-28T09:16:03.033Z,22.40
2022-09-28T09:19:03.657Z,23.10
2022-09-28T09:21:52.404Z,23.50
2022-09-28T09:24:38.787Z,23.40
2022-09-28T09:27:21.708Z,23.60
2022-09-28T09:29:59.606Z,23.60
2022-09-28T09:32:32.068Z,24.10
2022-09-28T09:35:17.227Z,24.30
2022-09-28T09:38:29.154Z,24.50
2022-09-28T09:41:43.365Z,24.80
2022-09-28T09:44:57.003Z,25.40
2022-09-28T09:48:00.178Z,26.00
2022-09-28T09:50:32.087Z,26.90
2022-09-28T09:53:06.147Z,27.30
2022-09-28T09:55:44.436Z,27.30
2022-09-28T09:58:48.737Z,27.30
2022-09-28T10:01:39.199Z,27.80
2022-09-28T10:04:25.825Z,27.50
2022-09-28T10:07:03.571Z,27.10
2022-09-28T10:09:42.703Z,27.30
2022-09-28T10:12:39.157Z,27.90
2022-09-28T10:15:07.687Z,28.50
2022-09-28T10:17:46.834Z,29.00
2022-09-28T10:20:35.485Z,29.70
2022-09-28T10:23:29.607Z,29.80
2022-09-28T10:26:07.775Z,28.50
2022-09-28T10:28:43.060Z,27.10
2022-09-28T10:31:55.736Z,26.60
2022-09-28T10:34:27.590Z,26.90
2022-09-28T10:37:05.373Z,27.80
2022-09-28T10:39:55.006Z,28.10
2022-09-28T10:42:33.559Z,28.10
2022-09-28T10:45:23.419Z,28.00
2022-09-28T10:47:50.790Z,28.20
2022-09-28T10:50:24.353Z,28.60
2022-09-28T10:53:12.577Z,28.80
2022-09-28T10:56:19.288Z,29.20
2022-09-28T10:58:47.445Z,29.40
2022-09-28T11:01:31.064Z,28.60
2022-09-28T11:04:04.555Z,28.40
2022-09-28T11:06:37.084Z,28.30
2022-09-28T11:09:20.822Z,28.40
2022-09-28T11:11:48.102Z,28.40
2022-09-28T11:14:43.666Z,28.10
2022-09-28T11:17:29.936Z,28.40
2022-09-28T11:19:59.194Z,29.20
2022-09-28T11:22:32.148Z,29.60
2022-09-28T11:25:16.454Z,29.00
2022-09-28T11:28:04.797Z,28.00
2022-09-28T11:30:45.832Z,26.90
2022-09-28T11:33:27.477Z,25.80
2022-09-28T11:36:42.602Z,24.50
2022-09-28T11:39:41.226Z,23.50
2022-09-28T11:42:36.847Z,23.50
2022-09-28T11:45:38.444Z,24.00
2022-09-28T11:48:09.260Z,24.50
2022-09-28T11:51:03.723Z,24.90
2022-09-28T11:53:48.925Z,24.50
2022-09-28T11:56:29.339Z,24.40
2022-09-28T11:59:02.496Z,24.50
2022-09-28T12:01:51.492Z,24.80
2022-09-28T12:05:08.000Z,24.90
2022-09-28T12:08:01.118Z,24.30
2022-09-28T12:11:02.752Z,23.60
2022-09-28T12:13:51.431Z,24.00
2022-09-28T12:16:53.522Z,23.90
2022-09-28T12:19:32.257Z,23.50
2022-09-28T12:22:23.993Z,23.60
2022-09-28T12:24:55.380Z,24.40
2022-09-28T12:27:31.687Z,25.30
2022-09-28T12:30:12.062Z,26.40
2022-09-28T12:32:46.436Z,26.70
2022-09-28T12:35:33.022Z,26.40
2022-09-28T12:37:59.801Z,26.00
2022-09-28T12:40:37.278Z,25.20
2022-09-28T12:43:40.635Z,24.30
2022-09-28T12:46:12.688Z,23.60
2022-09-28T12:49:56.240Z,22.90
2022-09-28T12:51:55.609Z,22.40
2022-09-28T12:54:34.289Z,22.00
2022-09-28T12:57:28.892Z,21.60
2022-09-28T13:00:19.142Z,21.10
2022-09-28T13:03:09.248Z,20.60
2022-09-28T13:05:51.409Z,20.20
2022-09-28T13:08:36.158Z,19.90
2022-09-28T13:11:24.681Z,19.70
2022-09-28T13:14:12.930Z,19.20
2022-09-28T13:17:03.431Z,18.40
2022-09-28T13:19:30.409Z,17.80
2022-09-28T13:22:28.745Z,17.30
2022-09-28T13:24:59.721Z,17.00
2022-09-28T13:27:34.456Z,16.90
2022-09-28T13:30:06.205Z,16.90
2022-09-28T13:32:34.240Z,16.80
2022-09-28T13:35:02.308Z,16.70
2022-09-28T13:37:29.732Z,16.50
2022-09-28T13:40:05.771Z,16.30
2022-09-28T13:42:45.130Z,16.10
2022-09-28T13:45:20.780Z,16.00
2022-09-28T13:47:56.674Z,15.80
2022-09-28T13:50:48.138Z,15.60
2022-09-28T13:53:55.564Z,15.60
2022-09-28T13:56:48.236Z,15.40
2022-09-28T13:59:31.629Z,15.30
2022-09-28T14:02:17.528Z,15.20
2022-09-28T14:05:26.975Z,15.10
2022-09-28T14:08:00.814Z,15.00
2022-09-28T14:10:50.164Z,14.90
2022-09-28T14:13:41.604Z,14.90
2022-09-28T14:16:32.642Z,14.80
2022-09-28T14:19:04.740Z,14.70
2022-09-28T14:21:58.167Z,14.60
2022-09-28T14:24:49.486Z,14.50
2022-09-28T14:27:58.375Z,14.50
2022-09-28T14:30:44.897Z,14.40
2022-09-28T14:33:20.879Z,14.40
2022-09-28T14:35:54.114Z,14.40
2022-09-28T14:38:42.758Z,14.40
2022-09-28T14:41:25.583Z,14.40
2022-09-28T14:44:05.590Z,14.30
2022-09-28T14:46:44.761Z,14.40
2022-09-28T14:49:18.390Z,14.50
2022-09-28T14:51:48.203Z,14.70
2022-09-28T14:54:18.635Z,14.80
2022-09-28T14:56:49.590Z,14.90
2022-09-28T14:59:30.239Z,15.20
2022-09-28T15:02:05.701Z,15.40
2022-09-28T15:04:36.706Z,15.60
2022-09-28T15:07:03.594Z,15.80
2022-09-28T15:09:32.392Z,15.90
2022-09-28T15:12:15.636Z,15.80
2022-09-28T15:14:47.751Z,15.80
2022-09-28T15:17:21.294Z,15.90
2022-09-28T15:20:19.637Z,16.10
2022-09-28T15:22:48.172Z,16.50
2022-09-28T15:25:19.964Z,17.20
2022-09-28T15:27:52.629Z,17.90
2022-09-28T15:30:29.571Z,18.10
2022-09-28T15:33:17.728Z,18.50
2022-09-28T15:35:57.325Z,19.20
2022-09-28T15:38:24.426Z,19.60
2022-09-28T15:40:51.505Z,19.60
2022-09-28T15:43:30.459Z,19.60
2022-09-28T15:46:08.200Z,19.40
2022-09-28T15:48:55.135Z,19.20
2022-09-28T15:51:23.558Z,18.90
2022-09-28T15:53:58.669Z,18.70
2022-09-28T15:56:26.579Z,18.50
2022-09-28T15:59:37.088Z,18.60
2022-09-28T16:02:20.762Z,19.20
2022-09-28T16:04:58.717Z,19.80
2022-09-28T16:07:32.096Z,20.40
2022-09-28T16:10:12.829Z,20.60
2022-09-28T16:12:54.227Z,20.50
2022-09-28T16:15:36.993Z,20.00
2022-09-28T16:18:23.494Z,19.60
2022-09-28T16:20:52.994Z,19.00
2022-09-28T16:23:34.054Z,18.50
2022-09-28T16:26:10.472Z,18.00
2022-09-28T16:28:40.812Z,17.70
2022-09-28T16:31:27.202Z,17.40
2022-09-28T16:33:58.159Z,17.00
2022-09-28T16:36:38.556Z,16.60
2022-09-28T16:39:05.386Z,16.30
2022-09-28T16:41:32.209Z,16.10
2022-09-28T16:44:02.128Z,16.20
2022-09-28T16:46:33.669Z,16.30
2022-09-28T16:49:03.045Z,16.40
2022-09-28T16:51:29.897Z,16.40
2022-09-28T16:54:29.826Z,16.50
2022-09-28T16:56:56.897Z,16.40
2022-09-28T16:59:23.703Z,16.20
2022-09-28T17:01:50.604Z,15.90
2022-09-28T17:04:17.439Z,15.70
2022-09-28T17:06:44.230Z,15.40
2022-09-28T17:09:13.796Z,15.10
2022-09-28T17:11:40.616Z,14.90
2022-09-28T17:14:08.789Z,14.70
2022-09-28T17:17:03.798Z,14.50
2022-09-28T17:19:25.007Z,14.40
2022-09-28T17:21:53.037Z,14.40
2022-09-28T17:24:20.518Z,14.30
2022-09-28T17:26:50.806Z,14.20
2022-09-28T17:29:18.508Z,14.10
2022-09-28T17:31:47.070Z,14.00
2022-09-28T17:34:16.037Z,13.90
2022-09-28T17:36:44.170Z,13.90
2022-09-28T17:39:13.520Z,13.90
2022-09-28T17:41:40.996Z,13.90
2022-09-28T17:44:08.205Z,13.90
2022-09-28T17:46:38.825Z,13.80
2022-09-28T17:49:07.278Z,13.80
2022-09-28T17:51:37.409Z,13.70
2022-09-28T17:54:06.507Z,13.70
2022-09-28T17:56:34.182Z,13.60
2022-09-28T17:59:03.954Z,13.50
2022-09-28T18:01:34.170Z,13.50
2022-09-28T18:04:03.879Z,13.40
2022-09-28T18:06:39.279Z,13.40
2022-09-28T18:09:06.126Z,13.30
2022-09-28T18:11:33.693Z,13.20
2022-09-28T18:14:00.982Z,13.20
2022-09-28T18:16:28.961Z,13.20
2022-09-28T18:18:56.077Z,13.10
2022-09-28T18:21:22.946Z,13.10
2022-09-28T18:23:49.890Z,13.00
2022-09-28T18:26:18.932Z,13.00
2022-09-28T18:28:46.196Z,13.00
2022-09-28T18:31:15.252Z,13.00
2022-09-28T18:33:42.086Z,12.90
2022-09-28T18:36:08.882Z,12.90
2022-09-28T18:38:36.429Z,12.90
2022-09-28T18:41:11.909Z,12.80
2022-09-28T18:43:38.679Z,12.80
2022-09-28T18:46:10.371Z,12.80
2022-09-28T18:48:40.536Z,12.70
2022-09-28T18:51:13.934Z,12.70
2022-09-28T18:53:40.793Z,12.70
2022-09-28T18:56:10.064Z,12.60
2022-09-28T18:58:39.271Z,12.60
2022-09-28T19:01:29.456Z,12.50
2022-09-28T19:04:01.611Z,12.50
2022-09-28T19:06:28.922Z,12.40
2022-09-28T19:08:56.641Z,12.40
2022-09-28T19:11:23.955Z,12.30
2022-09-28T19:13:51.038Z,12.20
2022-09-28T19:16:21.306Z,12.10
2022-09-28T19:18:48.535Z,12.10
2022-09-28T19:21:15.650Z,12.00
2022-09-28T19:23:48.975Z,12.00
2022-09-28T19:26:22.411Z,11.90
2022-09-28T19:28:49.406Z,11.90
2022-09-28T19:31:17.067Z,11.90
2022-09-28T19:33:45.292Z,11.80
2022-09-28T19:36:19.308Z,11.80
2022-09-28T19:38:46.421Z,11.80
2022-09-28T19:41:39.477Z,11.70
2022-09-28T19:44:26.768Z,11.70
2022-09-28T19:47:00.280Z,11.70
2022-09-28T19:49:32.941Z,11.70
2022-09-28T19:52:15.580Z,11.60
2022-09-28T19:55:00.202Z,11.50
2022-09-28T19:57:30.154Z,11.40
2022-09-28T20:00:02.063Z,11.30
2022-09-28T20:02:32.706Z,11.20
2022-09-28T20:04:59.627Z,11.10
2022-09-28T20:07:26.418Z,11.10
2022-09-28T20:09:53.369Z,11.10
2022-09-28T20:12:20.173Z,11.00
2022-09-28T20:14:47.051Z,11.00
2022-09-28T20:17:13.911Z,11.00
2022-09-28T20:19:40.677Z,11.00
2022-09-28T20:22:07.591Z,11.00
2022-09-28T20:24:34.437Z,11.00
2022-09-28T20:27:01.739Z,11.00
2022-09-28T20:29:29.253Z,11.00
2022-09-28T20:31:56.616Z,11.00
2022-09-28T20:34:23.440Z,10.90
2022-09-28T20:36:50.217Z,10.90
2022-09-28T20:39:17.198Z,10.90
2022-09-28T20:41:45.962Z,10.80
2022-09-28T20:44:13.070Z,10.80
2022-09-28T20:46:40.129Z,10.80
2022-09-28T20:49:07.679Z,10.80
2022-09-28T20:51:34.816Z,10.70
2022-09-28T20:54:01.638Z,10.70
2022-09-28T20:56:37.584Z,10.70
2022-09-28T20:59:07.075Z,10.70
2022-09-28T21:01:33.979Z,10.70
2022-09-28T21:04:02.451Z,10.70
2022-09-28T21:06:31.621Z,10.70
2022-09-28T21:08:58.849Z,10.70
2022-09-28T21:11:28.056Z,10.70
2022-09-28T21:13:58.105Z,10.70
2022-09-28T21:16:26.837Z,10.70
2022-09-28T21:18:53.708Z,10.70
2022-09-28T21:21:22.327Z,10.70
2022-09-28T21:23:52.828Z,10.60
2022-09-28T21:26:25.063Z,10.60
2022-09-28T21:28:59.872Z,10.60
2022-09-28T21:31:30.270Z,10.60
2022-09-28T21:33:58.006Z,10.60
2022-09-28T21:36:25.586Z,10.60
2022-09-28T21:38:54.129Z,10.60
2022-09-28T21:41:20.998Z,10.60
2022-09-28T21:43:47.734Z,10.60
2022-09-28T21:46:14.549Z,10.60
2022-09-28T21:48:41.366Z,10.60
2022-09-28T21:51:12.481Z,10.60
2022-09-28T21:53:39.598Z,10.50
2022-09-28T21:56:09.381Z,10.50
2022-09-28T21:58:37.061Z,10.50
2022-09-28T22:01:07.229Z,10.50
2022-09-28T22:03:36.067Z,10.40
2022-09-28T22:06:04.611Z,10.40
2022-09-28T22:08:31.714Z,10.30
2022-09-28T22:11:10.127Z,10.30
2022-09-28T22:13:44.167Z,10.20
2022-09-28T22:16:12.189Z,10.20
2022-09-28T22:18:39.999Z,10.20
2022-09-28T22:21:10.026Z,10.10
2022-09-28T22:23:38.040Z,10.10
2022-09-28T22:26:25.083Z,10.00
2022-09-28T22:29:01.070Z,10.00
2022-09-28T22:31:33.743Z,9.90
2022-09-28T22:34:00.761Z,9.90
2022-09-28T22:36:28.498Z,9.80
2022-09-28T22:38:56.989Z,9.80
2022-09-28T22:41:24.916Z,9.80
2022-09-28T22:43:53.145Z,9.70
2022-09-28T22:46:22.470Z,9.70
2022-09-28T22:48:52.512Z,9.70
2022-09-28T22:51:19.919Z,9.70
2022-09-28T22:53:46.873Z,9.60
2022-09-28T22:56:18.414Z,9.60
2022-09-28T22:58:45.770Z,9.60
2022-09-28T23:01:24.319Z,9.50
2022-09-28T23:03:52.798Z,9.50
2022-09-28T23:06:21.921Z,9.50
2022-09-28T23:08:51.281Z,9.50
2022-09-28T23:11:18.520Z,9.50
2022-09-28T23:13:53.101Z,9.50
2022-09-28T23:16:20.630Z,9.40
2022-09-28T23:18:49.150Z,9.40
2022-09-28T23:21:21.770Z,9.40
2022-09-28T23:23:54.597Z,9.40
2022-09-28T23:26:24.565Z,9.30
2022-09-28T23:28:52.952Z,9.30
2022-09-28T23:31:23.155Z,9.30
2022-09-28T23:33:50.198Z,9.30
2022-09-28T23:36:17.874Z,9.20
2022-09-28T23:38:44.925Z,9.20
2022-09-28T23:41:11.774Z,9.20
2022-09-28T23:43:38.602Z,9.10
2022-09-28T23:46:06.047Z,9.10
2022-09-28T23:48:33.726Z,9.10
2022-09-28T23:51:01.308Z,9.00
2022-09-28T23:53:28.859Z,9.00
2022-09-28T23:55:55.973Z,9.00
2022-09-28T23:58:22.874Z,9.00
